createdAt,value
2018-01-04T00:00:11.576Z,1.50
2018-01-04T00:01:11.574Z,1.60
2018-01-04T00:02:11.566Z,1.00
2018-01-04T00:03:11.559Z,1.20
2018-01-04T00:04:11.558Z,1.10
2018-01-04T00:05:11.557Z,1.50
2018-01-04T00:06:11.577Z,1.20
2018-01-04T00:07:11.542Z,1.90
2018-01-04T00:08:11.533Z,1.80
2018-01-04T00:09:11.550Z,2.80
2018-01-04T00:10:11.555Z,1.70
2018-01-04T00:11:11.623Z,1.60
2018-01-04T00:12:11.536Z,1.50
2018-01-04T00:13:11.506Z,1.30
2018-01-04T00:14:11.503Z,1.10
2018-01-04T00:15:11.498Z,1.70
2018-01-04T00:16:11.491Z,2.80
2018-01-04T00:17:11.486Z,1.80
2018-01-04T00:18:11.482Z,1.10
2018-01-04T00:19:11.476Z,1.20
2018-01-04T00:20:11.474Z,1.20
2018-01-04T00:21:11.524Z,1.30
2018-01-04T00:22:11.470Z,1.40
2018-01-04T00:23:11.457Z,1.30
2018-01-04T00:24:11.451Z,1.20
2018-01-04T00:25:11.448Z,0.70
2018-01-04T00:26:11.439Z,1.40
2018-01-04T00:27:11.434Z,1.00
2018-01-04T00:28:11.433Z,1.00
2018-01-04T00:29:11.424Z,1.90
2018-01-04T00:30:11.422Z,2.20
2018-01-04T00:31:11.414Z,1.50
2018-01-04T00:32:11.410Z,1.40
2018-01-04T00:33:11.404Z,1.40
2018-01-04T00:34:11.402Z,1.20
2018-01-04T00:35:11.392Z,1.30
2018-01-04T00:36:11.387Z,1.60
2018-01-04T00:37:11.381Z,1.30
2018-01-04T00:38:11.382Z,1.30
2018-01-04T00:39:11.376Z,1.70
2018-01-04T00:40:11.405Z,2.00
2018-01-04T00:41:11.360Z,1.40
2018-01-04T00:42:11.356Z,1.20
2018-01-04T00:43:11.351Z,0.90
2018-01-04T00:44:11.362Z,1.30
2018-01-04T00:45:11.340Z,1.50
2018-01-04T00:46:11.335Z,1.30
2018-01-04T00:47:11.330Z,1.70
2018-01-04T00:48:11.326Z,2.10
2018-01-04T00:49:11.321Z,1.50
2018-01-04T00:50:11.314Z,1.30
2018-01-04T00:51:11.307Z,2.20
2018-01-04T00:52:11.304Z,1.60
2018-01-04T00:53:11.296Z,1.40
2018-01-04T00:54:11.293Z,1.60
2018-01-04T00:55:11.286Z,1.40
2018-01-04T00:56:11.285Z,1.40
2018-01-04T00:57:11.277Z,1.40
2018-01-04T00:58:11.272Z,1.20
2018-01-04T00:59:11.267Z,1.80
2018-01-04T01:00:11.261Z,1.50
2018-01-04T01:01:11.261Z,1.20
2018-01-04T01:02:11.250Z,1.90
2018-01-04T01:03:11.245Z,1.90
2018-01-04T01:04:11.240Z,1.80
2018-01-04T01:05:11.244Z,1.60
2018-01-04T01:06:11.231Z,1.80
2018-01-04T01:07:11.250Z,1.40
2018-01-04T01:08:11.233Z,1.50
2018-01-04T01:09:11.212Z,1.70
2018-01-04T01:10:11.212Z,1.70
2018-01-04T01:11:11.202Z,2.30
2018-01-04T01:12:11.196Z,1.80
2018-01-04T01:13:11.192Z,1.60
2018-01-04T01:14:11.189Z,2.20
2018-01-04T01:15:11.182Z,1.70
2018-01-04T01:16:11.176Z,1.80
2018-01-04T01:17:11.170Z,1.60
2018-01-04T01:18:11.166Z,1.30
2018-01-04T01:19:11.166Z,1.20
2018-01-04T01:20:11.155Z,1.20
2018-01-04T01:21:11.148Z,1.40
2018-01-04T01:22:11.149Z,1.40
2018-01-04T01:23:11.184Z,1.80
2018-01-04T01:24:11.141Z,1.80
2018-01-04T01:25:11.128Z,1.50
2018-01-04T01:26:11.136Z,1.60
2018-01-04T01:27:11.161Z,1.40
2018-01-04T01:28:11.114Z,1.30
2018-01-04T01:29:11.105Z,1.30
2018-01-04T01:30:11.101Z,1.10
2018-01-04T01:31:11.105Z,1.40
2018-01-04T01:32:11.092Z,1.50
2018-01-04T01:33:11.085Z,1.30
2018-01-04T01:34:11.117Z,1.00
2018-01-04T01:35:11.075Z,1.60
2018-01-04T01:36:11.070Z,1.20
2018-01-04T01:37:11.066Z,1.50
2018-01-04T01:38:11.060Z,1.40
2018-01-04T01:39:11.056Z,1.70
2018-01-04T01:40:11.054Z,1.10
2018-01-04T01:41:11.047Z,1.50
2018-01-04T01:42:11.038Z,1.40
2018-01-04T01:43:11.035Z,1.40
2018-01-04T01:44:11.036Z,1.40
2018-01-04T01:45:11.025Z,2.10
2018-01-04T01:46:11.018Z,1.20
2018-01-04T01:47:11.014Z,1.50
2018-01-04T01:48:11.010Z,1.50
2018-01-04T01:49:11.006Z,1.20
2018-01-04T01:50:10.999Z,1.40
2018-01-04T01:51:10.996Z,1.80
2018-01-04T01:52:10.994Z,1.50
2018-01-04T01:53:10.986Z,1.50
2018-01-04T01:54:10.980Z,1.60
2018-01-04T01:55:10.985Z,1.50
2018-01-04T01:56:10.969Z,1.60
2018-01-04T01:57:10.970Z,1.20
2018-01-04T01:58:10.958Z,1.50
2018-01-04T01:59:11.001Z,1.40
2018-01-04T02:00:10.948Z,1.50
2018-01-04T02:01:10.986Z,1.60
2018-01-04T02:02:10.938Z,1.40
2018-01-04T02:03:10.934Z,1.90
2018-01-04T02:04:10.929Z,1.40
2018-01-04T02:05:10.924Z,1.40
2018-01-04T02:06:10.920Z,1.50
2018-01-04T02:07:10.915Z,1.50
2018-01-04T02:08:10.918Z,1.70
2018-01-04T02:09:10.906Z,1.50
2018-01-04T02:10:10.903Z,1.70
2018-01-04T02:11:10.930Z,1.70
2018-01-04T02:12:10.969Z,1.70
2018-01-04T02:13:10.882Z,1.40
2018-01-04T02:14:10.880Z,1.70
2018-01-04T02:15:10.875Z,1.90
2018-01-04T02:16:10.871Z,1.80
2018-01-04T02:17:10.863Z,1.90
2018-01-04T02:18:10.859Z,2.30
2018-01-04T02:19:10.853Z,1.80
2018-01-04T02:20:10.853Z,2.20
2018-01-04T02:21:10.847Z,2.30
2018-01-04T02:22:10.840Z,2.60
2018-01-04T02:23:10.842Z,2.40
2018-01-04T02:24:10.830Z,1.60
2018-01-04T02:25:10.829Z,1.70
2018-01-04T02:26:10.820Z,1.90
2018-01-04T02:27:10.815Z,2.10
2018-01-04T02:28:10.816Z,1.90
2018-01-04T02:29:11.446Z,3.00
2018-01-04T02:30:10.809Z,2.30
2018-01-04T02:31:10.796Z,2.10
2018-01-04T02:32:10.789Z,1.80
2018-01-04T02:33:10.788Z,1.80
2018-01-04T02:34:10.778Z,2.60
2018-01-04T02:35:10.777Z,2.70
2018-01-04T02:36:10.771Z,2.30
2018-01-04T02:37:10.764Z,2.60
2018-01-04T02:38:10.763Z,2.50
2018-01-04T02:39:10.757Z,3.10
2018-01-04T02:40:10.750Z,2.40
2018-01-04T02:41:10.749Z,2.20
2018-01-04T02:42:10.740Z,2.20
2018-01-04T02:43:10.805Z,2.40
2018-01-04T02:44:10.733Z,2.60
2018-01-04T02:45:10.728Z,2.60
2018-01-04T02:46:10.721Z,2.40
2018-01-04T02:47:10.716Z,2.40
2018-01-04T02:48:10.712Z,2.60
2018-01-04T02:49:10.706Z,2.80
2018-01-04T02:50:10.699Z,2.40
2018-01-04T02:51:10.702Z,3.30
2018-01-04T02:52:10.735Z,3.10
2018-01-04T02:53:10.686Z,2.60
2018-01-04T02:54:10.685Z,3.50
2018-01-04T02:55:10.674Z,3.00
2018-01-04T02:56:10.697Z,2.90
2018-01-04T02:57:10.664Z,3.20
2018-01-04T02:58:10.658Z,2.80
2018-01-04T02:59:10.656Z,2.70
2018-01-04T03:00:10.648Z,2.70
2018-01-04T03:01:10.652Z,3.40
2018-01-04T03:02:10.639Z,2.80
2018-01-04T03:03:10.631Z,3.40
2018-01-04T03:04:10.626Z,2.50
2018-01-04T03:05:10.631Z,3.10
2018-01-04T03:06:10.617Z,2.80
2018-01-04T03:07:10.614Z,3.10
2018-01-04T03:08:10.610Z,2.80
2018-01-04T03:09:10.600Z,2.40
2018-01-04T03:10:10.596Z,3.00
2018-01-04T03:11:10.593Z,3.20
2018-01-04T03:12:10.587Z,2.70
2018-01-04T03:13:10.581Z,3.20
2018-01-04T03:14:10.577Z,3.20
2018-01-04T03:15:10.573Z,3.10
2018-01-04T03:16:10.569Z,3.20
2018-01-04T03:17:10.561Z,3.20
2018-01-04T03:18:10.557Z,3.10
2018-01-04T03:19:10.553Z,3.80
2018-01-04T03:20:10.548Z,3.60
2018-01-04T03:21:10.545Z,3.40
2018-01-04T03:22:10.569Z,2.80
2018-01-04T03:23:10.577Z,3.70
2018-01-04T03:24:10.526Z,3.40
2018-01-04T03:25:10.527Z,3.40
2018-01-04T03:26:10.519Z,4.10
2018-01-04T03:27:10.512Z,3.00
2018-01-04T03:28:10.505Z,3.40
2018-01-04T03:29:10.498Z,3.80
2018-01-04T03:30:10.502Z,3.60
2018-01-04T03:31:10.493Z,3.40
2018-01-04T03:32:10.518Z,3.20
2018-01-04T03:33:10.480Z,3.70
2018-01-04T03:34:10.476Z,3.40
2018-01-04T03:35:10.474Z,4.00
2018-01-04T03:36:10.466Z,3.80
2018-01-04T03:37:10.463Z,4.30
2018-01-04T03:38:10.457Z,3.60
2018-01-04T03:39:10.524Z,3.70
2018-01-04T03:40:10.449Z,3.40
2018-01-04T03:41:10.442Z,3.60
2018-01-04T03:42:10.438Z,10.80
2018-01-04T03:43:10.477Z,3.60
2018-01-04T03:44:10.483Z,4.40
2018-01-04T03:45:10.461Z,3.70
2018-01-04T03:46:10.418Z,3.90
2018-01-04T03:47:10.412Z,3.40
2018-01-04T03:48:10.409Z,3.70
2018-01-04T03:49:10.404Z,3.80
2018-01-04T03:50:10.399Z,3.10
2018-01-04T03:51:10.400Z,3.50
2018-01-04T03:52:10.389Z,2.80
2018-01-04T03:53:10.383Z,3.00
2018-01-04T03:54:10.383Z,2.90
2018-01-04T03:55:10.398Z,3.40
2018-01-04T03:56:10.369Z,3.60
2018-01-04T03:57:10.407Z,3.50
2018-01-04T03:58:10.361Z,3.00
2018-01-04T03:59:10.527Z,4.20
2018-01-04T04:00:10.350Z,3.30
2018-01-04T04:01:10.346Z,3.90
2018-01-04T04:02:10.403Z,3.80
2018-01-04T04:03:10.341Z,3.00
2018-01-04T04:04:10.331Z,3.30
2018-01-04T04:05:10.326Z,3.50
2018-01-04T04:06:10.328Z,3.30
2018-01-04T04:07:10.756Z,3.20
2018-01-04T04:08:10.314Z,3.20
2018-01-04T04:09:10.308Z,3.50
2018-01-04T04:10:10.305Z,3.10
2018-01-04T04:11:10.300Z,3.80
2018-01-04T04:12:10.303Z,3.70
2018-01-04T04:13:10.291Z,3.30
2018-01-04T04:14:10.283Z,2.90
2018-01-04T04:15:10.279Z,3.70
2018-01-04T04:16:10.275Z,3.30
2018-01-04T04:17:10.271Z,3.00
2018-01-04T04:18:37.889Z,3.00
2018-01-04T04:19:10.273Z,3.40
2018-01-04T04:20:10.256Z,3.00
2018-01-04T04:21:10.249Z,2.70
2018-01-04T04:22:10.246Z,3.40
2018-01-04T04:23:10.241Z,3.50
2018-01-04T04:24:10.240Z,3.50
2018-01-04T04:25:10.230Z,3.50
2018-01-04T04:26:10.229Z,2.90
2018-01-04T04:27:10.222Z,3.50
2018-01-04T04:28:10.220Z,3.10
2018-01-04T04:29:10.211Z,3.20
2018-01-04T04:30:10.208Z,3.30
2018-01-04T04:31:10.250Z,3.80
2018-01-04T04:32:10.196Z,4.00
2018-01-04T04:33:10.190Z,3.60
2018-01-04T04:34:10.200Z,3.10
2018-01-04T04:35:10.183Z,3.70
2018-01-04T04:36:10.178Z,3.40
2018-01-04T04:37:10.172Z,3.80
2018-01-04T04:38:10.169Z,3.20
2018-01-04T04:39:10.161Z,3.50
2018-01-04T04:40:10.163Z,3.20
2018-01-04T04:41:10.151Z,3.50
2018-01-04T04:42:10.158Z,3.00
2018-01-04T04:43:10.142Z,2.80
2018-01-04T04:44:10.150Z,3.00
2018-01-04T04:45:10.133Z,3.00
2018-01-04T04:46:10.127Z,3.60
2018-01-04T04:47:10.122Z,3.70
2018-01-04T04:48:10.117Z,3.10
2018-01-04T04:49:10.112Z,3.20
2018-01-04T04:50:10.107Z,2.90
2018-01-04T04:51:10.103Z,3.40
2018-01-04T04:52:10.100Z,3.50
2018-01-04T04:53:10.091Z,3.20
2018-01-04T04:54:10.092Z,3.00
2018-01-04T04:55:10.084Z,3.00
2018-01-04T04:56:10.078Z,3.20
2018-01-04T04:57:10.073Z,2.60
2018-01-04T04:58:10.067Z,3.30
2018-01-04T04:59:10.062Z,3.60
2018-01-04T05:00:10.061Z,3.00
2018-01-04T05:01:10.054Z,3.40
2018-01-04T05:02:10.048Z,3.60
2018-01-04T05:03:10.082Z,2.90
2018-01-04T05:04:10.039Z,3.50
2018-01-04T05:05:10.033Z,2.70
2018-01-04T05:06:10.032Z,3.00
2018-01-04T05:07:10.023Z,3.10
2018-01-04T05:08:10.025Z,2.00
2018-01-04T05:09:10.011Z,3.40
2018-01-04T05:10:10.007Z,3.00
2018-01-04T05:11:10.007Z,2.80
2018-01-04T05:12:10.002Z,2.60
2018-01-04T05:13:09.994Z,2.20
2018-01-04T05:14:09.987Z,3.30
2018-01-04T05:15:09.982Z,2.40
2018-01-04T05:16:09.977Z,3.30
2018-01-04T05:17:09.972Z,2.10
2018-01-04T05:18:09.967Z,2.90
2018-01-04T05:19:09.961Z,3.10
2018-01-04T05:20:09.956Z,2.90
2018-01-04T05:21:09.953Z,2.90
2018-01-04T05:22:09.946Z,2.30
2018-01-04T05:23:09.945Z,2.50
2018-01-04T05:24:09.935Z,2.30
2018-01-04T05:25:09.929Z,2.50
2018-01-04T05:26:12.191Z,3.00
2018-01-04T05:27:18.560Z,2.70
2018-01-04T05:29:04.369Z,2.60
2018-01-04T05:30:04.286Z,2.60
2018-01-04T05:31:58.856Z,2.80
2018-01-04T05:32:58.854Z,2.60
2018-01-04T05:34:54.099Z,2.60
2018-01-04T05:35:54.562Z,2.70
2018-01-04T05:37:48.468Z,2.90
2018-01-04T05:38:47.603Z,2.60
2018-01-04T05:40:43.300Z,3.90
2018-01-04T05:41:42.116Z,3.00
2018-01-04T05:43:41.200Z,3.00
2018-01-04T05:44:41.207Z,3.00
2018-01-04T05:46:35.721Z,3.30
2018-01-04T05:47:36.261Z,2.90
2018-01-04T05:49:30.048Z,3.30
2018-01-04T05:50:29.046Z,3.40
2018-01-04T05:52:23.454Z,3.10
2018-01-04T05:53:23.402Z,3.40
2018-01-04T05:55:17.782Z,3.40
2018-01-04T05:56:17.770Z,3.00
2018-01-04T05:58:12.173Z,3.00
2018-01-04T05:59:12.179Z,3.10
2018-01-04T06:01:06.502Z,3.10
2018-01-04T06:02:06.490Z,3.00
2018-01-04T06:04:00.946Z,3.40
2018-01-04T06:05:00.849Z,2.80
2018-01-04T06:06:55.223Z,2.70
2018-01-04T06:07:55.211Z,2.70
2018-01-04T06:09:49.685Z,3.10
2018-01-04T06:10:49.571Z,3.40
2018-01-04T06:12:43.963Z,3.60
2018-01-04T06:13:44.953Z,4.00
2018-01-04T06:15:38.411Z,3.30
2018-01-04T06:16:38.296Z,3.00
2018-01-04T06:18:32.667Z,3.70
2018-01-04T06:19:32.656Z,3.30
2018-01-04T06:21:27.201Z,3.30
2018-01-04T06:22:27.016Z,4.00
2018-01-04T06:24:21.387Z,3.30
2018-01-04T06:25:21.378Z,3.10
2018-01-04T06:27:16.010Z,3.60
2018-01-04T06:28:15.750Z,3.10
2018-01-04T06:30:10.112Z,3.40
2018-01-04T06:31:10.099Z,3.90
2018-01-04T06:33:04.505Z,3.90
2018-01-04T06:34:04.517Z,3.80
2018-01-04T06:35:58.927Z,3.20
2018-01-04T06:36:58.826Z,3.60
2018-01-04T06:38:53.194Z,3.80
2018-01-04T06:39:53.181Z,3.90
2018-01-04T06:41:47.642Z,3.30
2018-01-04T06:42:47.543Z,3.20
2018-01-04T06:44:41.947Z,3.20
2018-01-04T06:45:42.260Z,3.30
2018-01-04T06:47:36.264Z,5.10
2018-01-04T06:48:36.319Z,3.30
2018-01-04T06:50:30.684Z,3.90
2018-01-04T06:51:30.616Z,4.00
2018-01-04T06:53:24.988Z,3.80
2018-01-04T06:54:24.995Z,3.60
2018-01-04T06:56:19.397Z,3.60
2018-01-04T06:57:19.340Z,3.60
2018-01-04T06:59:13.708Z,3.70
2018-01-04T07:00:13.697Z,3.70
2018-01-04T07:02:08.156Z,3.70
2018-01-04T07:03:08.060Z,4.20
2018-01-04T07:05:02.737Z,4.10
2018-01-04T07:06:03.493Z,3.50
2018-01-04T07:07:56.780Z,3.60
2018-01-04T07:08:56.776Z,3.60
2018-01-04T07:10:51.192Z,3.90
2018-01-04T07:11:51.133Z,4.00
2018-01-04T07:12:51.128Z,3.60
2018-01-04T07:13:51.130Z,4.30
2018-01-04T07:14:51.334Z,3.50
2018-01-04T07:15:51.115Z,4.20
2018-01-04T07:16:51.144Z,4.50
2018-01-04T07:17:51.504Z,4.20
2018-01-04T07:18:51.263Z,3.90
2018-01-04T07:19:51.369Z,3.50
2018-01-04T07:20:51.297Z,3.40
2018-01-04T07:21:51.084Z,3.70
2018-01-04T07:22:51.079Z,4.10
2018-01-04T07:23:51.079Z,3.90
2018-01-04T07:24:51.069Z,3.70
2018-01-04T07:25:51.064Z,3.20
2018-01-04T07:26:51.059Z,3.90
2018-01-04T07:27:51.173Z,3.70
2018-01-04T07:28:51.071Z,3.40
2018-01-04T07:29:51.044Z,4.00
2018-01-04T07:30:51.044Z,4.00
2018-01-04T07:31:51.035Z,4.10
2018-01-04T07:32:51.029Z,4.40
2018-01-04T07:33:51.037Z,3.90
2018-01-04T07:34:51.020Z,3.90
2018-01-04T07:35:51.025Z,3.90
2018-01-04T07:36:51.068Z,3.90
2018-01-04T07:37:51.007Z,3.30
2018-01-04T07:38:51.001Z,3.90
2018-01-04T07:39:50.997Z,3.70
2018-01-04T07:40:50.990Z,4.30
2018-01-04T07:41:50.987Z,3.80
2018-01-04T07:42:50.999Z,3.80
2018-01-04T07:43:50.978Z,3.90
2018-01-04T07:44:50.971Z,3.50
2018-01-04T07:45:50.967Z,3.60
2018-01-04T07:46:50.962Z,3.80
2018-01-04T07:47:50.958Z,4.00
2018-01-04T07:48:50.951Z,4.00
2018-01-04T07:49:50.946Z,4.40
2018-01-04T07:50:50.946Z,3.80
2018-01-04T07:51:50.937Z,3.50
2018-01-04T07:52:50.932Z,3.40
2018-01-04T07:53:50.928Z,3.90
2018-01-04T07:54:50.923Z,3.40
2018-01-04T07:55:50.925Z,3.90
2018-01-04T07:56:50.913Z,4.60
2018-01-04T07:57:50.906Z,3.50
2018-01-04T07:58:50.907Z,3.60
2018-01-04T07:59:50.900Z,5.70
2018-01-04T08:00:50.935Z,4.70
2018-01-04T08:01:50.889Z,3.40
2018-01-04T08:02:50.970Z,4.00
2018-01-04T08:03:50.882Z,4.20
2018-01-04T08:04:50.875Z,3.30
2018-01-04T08:05:50.869Z,3.30
2018-01-04T08:06:50.864Z,4.40
2018-01-04T08:07:50.862Z,3.00
2018-01-04T08:08:50.855Z,3.80
2018-01-04T08:09:50.853Z,4.60
2018-01-04T08:10:50.898Z,4.30
2018-01-04T08:11:50.843Z,3.80
2018-01-04T08:12:50.846Z,4.00
2018-01-04T08:13:50.830Z,4.20
2018-01-04T08:14:50.827Z,3.90
2018-01-04T08:15:50.824Z,3.40
2018-01-04T08:16:50.818Z,3.50
2018-01-04T08:17:50.812Z,2.70
2018-01-04T08:18:50.809Z,3.90
2018-01-04T08:19:50.802Z,3.70
2018-01-04T08:20:50.836Z,4.40
2018-01-04T08:21:50.793Z,4.70
2018-01-04T08:22:50.786Z,4.20
2018-01-04T08:23:50.805Z,4.00
2018-01-04T08:24:50.780Z,4.20
2018-01-04T08:25:50.774Z,4.20
2018-01-04T08:26:50.776Z,3.90
2018-01-04T08:27:50.765Z,4.00
2018-01-04T08:28:50.759Z,4.30
2018-01-04T08:29:50.752Z,4.00
2018-01-04T08:30:50.756Z,5.00
2018-01-04T08:31:50.744Z,4.80
2018-01-04T08:32:50.739Z,4.10
2018-01-04T08:33:50.734Z,4.20
2018-01-04T08:34:50.733Z,4.60
2018-01-04T08:35:50.735Z,4.70
2018-01-04T08:36:50.722Z,4.10
2018-01-04T08:37:50.716Z,4.00
2018-01-04T08:38:50.712Z,3.90
2018-01-04T08:39:50.708Z,4.20
2018-01-04T08:40:50.704Z,3.80
2018-01-04T08:41:50.708Z,4.30
2018-01-04T08:42:50.694Z,4.10
2018-01-04T08:43:51.417Z,4.10
2018-01-04T08:44:50.683Z,3.60
2018-01-04T08:45:51.015Z,4.70
2018-01-04T08:46:50.917Z,4.20
2018-01-04T08:47:51.627Z,4.20
2018-01-04T08:48:50.975Z,4.60
2018-01-04T08:49:50.659Z,4.60
2018-01-04T08:50:50.725Z,4.70
2018-01-04T08:51:50.648Z,4.90
2018-01-04T08:52:50.645Z,4.30
2018-01-04T08:53:50.642Z,4.20
2018-01-04T08:54:51.981Z,4.10
2018-01-04T08:55:50.633Z,4.30
2018-01-04T08:56:50.631Z,4.30
2018-01-04T08:57:50.620Z,3.60
2018-01-04T08:58:50.615Z,3.70
2018-01-04T08:59:50.613Z,4.00
2018-01-04T09:00:50.792Z,4.10
2018-01-04T09:01:50.626Z,5.40
2018-01-04T09:02:50.596Z,4.20
2018-01-04T09:03:50.682Z,3.70
2018-01-04T09:04:50.589Z,3.40
2018-01-04T09:05:50.582Z,4.10
2018-01-04T09:06:50.583Z,5.20
2018-01-04T09:07:50.585Z,3.50
2018-01-04T09:08:50.576Z,3.70
2018-01-04T09:09:50.564Z,4.20
2018-01-04T09:10:50.565Z,4.00
2018-01-04T09:11:50.725Z,4.20
2018-01-04T09:12:59.190Z,4.60
2018-01-04T09:14:45.121Z,4.40
2018-01-04T09:15:44.940Z,4.50
2018-01-04T09:17:39.309Z,4.40
2018-01-04T09:18:39.298Z,4.80
2018-01-04T09:20:34.012Z,3.80
2018-01-04T09:21:33.848Z,3.50
2018-01-04T09:23:28.234Z,5.30
2018-01-04T09:24:28.226Z,4.70
2018-01-04T09:26:22.625Z,4.10
2018-01-04T09:27:22.588Z,4.00
2018-01-04T09:29:17.394Z,4.10
2018-01-04T09:30:16.980Z,3.50
2018-01-04T09:32:12.318Z,4.10
2018-01-04T09:33:12.198Z,4.00
2018-01-04T09:35:05.691Z,4.60
2018-01-04T09:36:06.622Z,4.30
2018-01-04T09:37:05.664Z,4.10
2018-01-04T09:38:05.664Z,4.50
2018-01-04T09:39:05.657Z,3.90
2018-01-04T09:40:05.971Z,3.90
2018-01-04T09:41:05.652Z,4.00
2018-01-04T09:42:05.644Z,3.90
2018-01-04T09:43:05.640Z,5.30
2018-01-04T09:44:05.636Z,5.10
2018-01-04T09:45:05.635Z,3.80
2018-01-04T09:46:05.627Z,4.90
2018-01-04T09:47:05.626Z,4.30
2018-01-04T09:48:05.620Z,4.80
2018-01-04T09:49:05.616Z,4.50
2018-01-04T09:50:05.615Z,4.00
2018-01-04T09:51:05.607Z,4.10
2018-01-04T09:52:05.606Z,4.20
2018-01-04T09:53:06.176Z,4.30
2018-01-04T09:54:05.597Z,6.40
2018-01-04T09:55:05.649Z,9.40
2018-01-04T09:56:05.674Z,4.10
2018-01-04T09:57:06.126Z,4.30
2018-01-04T09:58:05.581Z,4.50
2018-01-04T09:59:05.578Z,3.90
2018-01-04T10:00:05.574Z,4.90
2018-01-04T10:01:05.569Z,4.80
2018-01-04T10:02:05.593Z,4.80
2018-01-04T10:03:05.568Z,5.10
2018-01-04T10:04:05.558Z,5.00
2018-01-04T10:05:05.731Z,4.50
2018-01-04T10:06:05.552Z,5.90
2018-01-04T10:07:05.561Z,4.60
2018-01-04T10:08:05.547Z,4.60
2018-01-04T10:09:05.540Z,3.80
2018-01-04T10:10:05.536Z,4.20
2018-01-04T10:11:05.542Z,4.20
2018-01-04T10:12:05.540Z,5.10
2018-01-04T10:13:05.528Z,4.40
2018-01-04T10:14:05.520Z,4.70
2018-01-04T10:15:05.521Z,4.50
2018-01-04T10:16:05.542Z,4.40
2018-01-04T10:17:05.510Z,4.90
2018-01-04T10:18:05.507Z,4.90
2018-01-04T10:19:05.503Z,5.30
2018-01-04T10:20:05.500Z,4.40
2018-01-04T10:21:05.507Z,4.20
2018-01-04T10:22:05.544Z,4.80
2018-01-04T10:23:06.674Z,4.40
2018-01-04T10:24:05.790Z,4.40
2018-01-04T10:25:05.548Z,4.40
2018-01-04T10:26:05.477Z,4.00
2018-01-04T10:27:05.495Z,4.80
2018-01-04T10:28:05.472Z,4.30
2018-01-04T10:29:05.467Z,4.20
2018-01-04T10:30:05.462Z,4.60
2018-01-04T10:31:05.457Z,5.00
2018-01-04T10:32:05.456Z,4.70
2018-01-04T10:33:05.461Z,4.00
2018-01-04T10:34:05.446Z,4.60
2018-01-04T10:35:05.455Z,6.80
2018-01-04T10:36:05.495Z,5.70
2018-01-04T10:37:05.478Z,5.90
2018-01-04T10:38:05.431Z,4.70
2018-01-04T10:39:05.430Z,4.70
2018-01-04T10:40:05.424Z,4.80
2018-01-04T10:41:05.424Z,4.40
2018-01-04T10:42:05.420Z,5.30
2018-01-04T10:43:05.415Z,5.50
2018-01-04T10:44:05.409Z,5.40
2018-01-04T10:45:05.452Z,4.90
2018-01-04T10:46:05.404Z,4.60
2018-01-04T10:47:05.399Z,4.80
2018-01-04T10:48:05.412Z,4.70
2018-01-04T10:49:05.390Z,4.10
2018-01-04T10:50:05.405Z,4.90
2018-01-04T10:51:05.384Z,4.80
2018-01-04T10:52:05.511Z,3.90
2018-01-04T10:53:05.377Z,4.10
2018-01-04T10:54:05.395Z,4.60
2018-01-04T10:55:05.405Z,4.10
2018-01-04T10:56:05.462Z,4.40
2018-01-04T10:57:05.362Z,4.20
2018-01-04T10:58:05.362Z,4.50
2018-01-04T10:59:06.139Z,4.60
2018-01-04T11:00:09.311Z,4.50
2018-01-04T11:01:05.397Z,5.40
2018-01-04T11:02:05.837Z,5.10
2018-01-04T11:03:05.343Z,4.30
2018-01-04T11:04:05.341Z,5.10
2018-01-04T11:05:05.427Z,5.30
2018-01-04T11:06:05.606Z,4.50
2018-01-04T11:07:05.634Z,5.30
2018-01-04T11:08:05.327Z,5.00
2018-01-04T11:09:05.320Z,5.70
2018-01-04T11:10:05.317Z,4.90
2018-01-04T11:11:05.320Z,5.20
2018-01-04T11:12:05.315Z,5.50
2018-01-04T11:13:05.331Z,4.90
2018-01-04T11:14:05.305Z,5.40
2018-01-04T11:15:05.299Z,5.20
2018-01-04T11:16:05.297Z,5.20
2018-01-04T11:17:05.293Z,4.60
2018-01-04T11:18:05.289Z,4.10
2018-01-04T11:19:05.285Z,5.00
2018-01-04T11:20:05.288Z,4.40
2018-01-04T11:21:05.280Z,5.40
2018-01-04T11:22:05.275Z,4.40
2018-01-04T11:23:05.285Z,6.00
2018-01-04T11:24:05.270Z,6.20
2018-01-04T11:25:05.275Z,7.90
2018-01-04T11:26:05.262Z,5.40
2018-01-04T11:27:05.296Z,4.40
2018-01-04T11:28:05.254Z,5.50
2018-01-04T11:29:05.252Z,4.90
2018-01-04T11:30:05.441Z,5.70
2018-01-04T11:31:05.245Z,4.30
2018-01-04T11:32:05.243Z,4.60
2018-01-04T11:33:05.237Z,5.50
2018-01-04T11:34:05.234Z,5.60
2018-01-04T11:35:05.232Z,5.10
2018-01-04T11:36:05.612Z,4.90
2018-01-04T11:37:05.230Z,5.10
2018-01-04T11:38:05.221Z,6.50
2018-01-04T11:39:05.221Z,4.90
2018-01-04T11:40:05.216Z,5.30
2018-01-04T11:41:05.211Z,5.00
2018-01-04T11:42:05.220Z,5.10
2018-01-04T11:43:05.211Z,5.30
2018-01-04T11:44:05.201Z,4.60
2018-01-04T11:45:05.197Z,4.90
2018-01-04T11:46:05.214Z,5.30
2018-01-04T11:47:05.200Z,5.10
2018-01-04T11:48:05.191Z,4.80
2018-01-04T11:49:05.186Z,4.60
2018-01-04T11:50:05.185Z,4.70
2018-01-04T11:51:05.176Z,5.00
2018-01-04T11:52:05.175Z,5.50
2018-01-04T11:53:05.169Z,4.80
2018-01-04T11:54:05.166Z,5.40
2018-01-04T11:55:05.166Z,5.30
2018-01-04T11:56:05.161Z,5.00
2018-01-04T11:57:05.156Z,5.20
2018-01-04T11:58:05.156Z,5.60
2018-01-04T11:59:05.152Z,5.60
2018-01-04T12:00:05.150Z,6.50
2018-01-04T12:01:05.144Z,5.70
2018-01-04T12:02:05.142Z,5.60
2018-01-04T12:03:05.137Z,5.30
2018-01-04T12:04:05.134Z,6.00
2018-01-04T12:05:05.227Z,5.20
2018-01-04T12:06:05.126Z,5.10
2018-01-04T12:07:05.123Z,5.90
2018-01-04T12:08:05.120Z,5.80
2018-01-04T12:09:05.122Z,5.30
2018-01-04T12:10:05.116Z,5.60
2018-01-04T12:11:05.114Z,5.80
2018-01-04T12:12:05.110Z,6.90
2018-01-04T12:13:05.107Z,8.70
2018-01-04T12:14:05.100Z,6.60
2018-01-04T12:15:05.103Z,5.00
2018-01-04T12:16:05.559Z,5.00
2018-01-04T12:17:05.882Z,5.50
2018-01-04T12:18:06.369Z,5.60
2018-01-04T12:19:05.090Z,5.20
2018-01-04T12:20:05.080Z,5.30
2018-01-04T12:21:05.080Z,4.80
2018-01-04T12:22:05.082Z,5.20
2018-01-04T12:23:05.072Z,5.10
2018-01-04T12:24:05.071Z,6.40
2018-01-04T12:25:05.066Z,5.70
2018-01-04T12:26:05.062Z,5.50
2018-01-04T12:27:05.064Z,5.60
2018-01-04T12:28:05.054Z,5.40
2018-01-04T12:29:05.050Z,6.40
2018-01-04T12:30:05.050Z,5.60
2018-01-04T12:31:05.046Z,5.70
2018-01-04T12:32:05.062Z,5.90
2018-01-04T12:33:05.039Z,5.90
2018-01-04T12:34:05.035Z,5.40
2018-01-04T12:35:05.031Z,5.60
2018-01-04T12:36:05.028Z,5.80
2018-01-04T12:37:05.042Z,5.50
2018-01-04T12:38:05.029Z,4.40
2018-01-04T12:39:05.032Z,5.30
2018-01-04T12:40:05.020Z,5.10
2018-01-04T12:41:05.011Z,5.40
2018-01-04T12:42:05.009Z,5.50
2018-01-04T12:43:05.007Z,5.30
2018-01-04T12:44:05.007Z,5.60
2018-01-04T12:45:04.996Z,5.50
2018-01-04T12:46:04.994Z,5.10
2018-01-04T12:47:05.022Z,5.20
2018-01-04T12:48:05.011Z,5.20
2018-01-04T12:49:04.994Z,5.80
2018-01-04T12:50:04.981Z,5.50
2018-01-04T12:51:04.978Z,5.70
2018-01-04T12:52:04.977Z,4.90
2018-01-04T12:53:04.975Z,5.20
2018-01-04T12:54:04.976Z,5.60
2018-01-04T12:55:04.964Z,4.90
2018-01-04T12:56:04.962Z,5.50
2018-01-04T12:57:04.957Z,4.90
2018-01-04T12:58:04.999Z,4.50
2018-01-04T12:59:04.951Z,5.10
2018-01-04T13:00:04.952Z,5.40
2018-01-04T13:01:04.944Z,5.60
2018-01-04T13:02:04.949Z,5.50
2018-01-04T13:03:04.940Z,5.50
2018-01-04T13:04:04.939Z,5.60
2018-01-04T13:05:04.933Z,5.20
2018-01-04T13:06:04.959Z,4.60
2018-01-04T13:07:04.926Z,4.90
2018-01-04T13:08:04.926Z,5.10
2018-01-04T13:09:04.936Z,5.70
2018-01-04T13:10:04.935Z,4.50
2018-01-04T13:11:04.995Z,5.90
2018-01-04T13:12:04.909Z,5.10
2018-01-04T13:13:04.907Z,4.70
2018-01-04T13:14:04.907Z,5.70
2018-01-04T13:15:04.903Z,5.50
2018-01-04T13:16:04.896Z,5.80
2018-01-04T13:17:04.891Z,5.80
2018-01-04T13:18:04.908Z,7.40
2018-01-04T13:19:04.886Z,5.50
2018-01-04T13:20:04.906Z,5.20
2018-01-04T13:21:04.882Z,5.10
2018-01-04T13:22:04.887Z,4.80
2018-01-04T13:23:04.879Z,4.20
2018-01-04T13:24:04.886Z,4.80
2018-01-04T13:25:04.868Z,5.10
2018-01-04T13:26:04.867Z,5.50
2018-01-04T13:27:04.863Z,4.90
2018-01-04T13:28:04.864Z,3.90
2018-01-04T13:29:04.867Z,4.40
2018-01-04T13:30:04.854Z,4.20
2018-01-04T13:31:04.850Z,3.70
2018-01-04T13:32:04.847Z,4.60
2018-01-04T13:33:04.842Z,4.80
2018-01-04T13:34:04.839Z,4.70
2018-01-04T13:35:04.837Z,5.40
2018-01-04T13:36:04.832Z,5.20
2018-01-04T13:37:04.829Z,4.80
2018-01-04T13:38:04.828Z,5.60
2018-01-04T13:39:04.824Z,4.60
2018-01-04T13:40:04.820Z,4.30
2018-01-04T13:41:04.815Z,4.00
2018-01-04T13:42:04.814Z,5.80
2018-01-04T13:43:04.813Z,4.20
2018-01-04T13:44:04.821Z,4.10
2018-01-04T13:45:04.807Z,4.70
2018-01-04T13:46:04.800Z,4.00
2018-01-04T13:47:04.809Z,4.20
2018-01-04T13:48:04.806Z,4.30
2018-01-04T13:49:04.791Z,3.50
2018-01-04T13:50:04.794Z,3.40
2018-01-04T13:51:04.822Z,4.10
2018-01-04T13:52:04.790Z,4.00
2018-01-04T13:53:04.789Z,4.50
2018-01-04T13:54:04.780Z,4.60
2018-01-04T13:55:04.813Z,4.60
2018-01-04T13:56:04.768Z,4.80
2018-01-04T13:57:04.766Z,4.70
2018-01-04T13:58:04.774Z,3.70